createdAt,value
2023-03-22T00:00:18.197Z,1586.3077
2023-03-22T00:01:19.606Z,1589.3846
2023-03-22T00:02:21.054Z,1598.7693
2023-03-22T00:03:22.510Z,1598.8462
2023-03-22T00:04:23.861Z,1602.8462
2023-03-22T00:05:25.289Z,1609.0769
2023-03-22T00:06:26.724Z,1619.6154
2023-03-22T00:07:28.153Z,1627.0769
2023-03-22T00:08:29.558Z,1634.6923
2023-03-22T00:09:30.974Z,1635.2307
2023-03-22T00:10:32.398Z,1637.1538
2023-03-22T00:11:33.806Z,1638.3077
2023-03-22T00:12:35.254Z,1639.4615
2023-03-22T00:13:36.681Z,1640.9231
2023-03-22T00:14:38.106Z,1648.3077
2023-03-22T00:15:39.560Z,1654.0000
2023-03-22T00:16:40.934Z,1659.6923
2023-03-22T00:17:42.344Z,1662.1538
2023-03-22T00:18:43.767Z,1666.0000
2023-03-22T00:19:45.202Z,1672.5385
2023-03-22T00:20:46.618Z,1679.5385
2023-03-22T00:21:48.034Z,1684.8462
2023-03-22T00:22:49.460Z,1688.1538
2023-03-22T00:23:50.886Z,1698.1538
2023-03-22T00:24:52.322Z,1699.6923
2023-03-22T00:25:53.718Z,1702.7693
2023-03-22T00:26:55.156Z,1714.9231
2023-03-22T00:27:56.576Z,1720.0769
2023-03-22T00:28:58.016Z,1722.5385
2023-03-22T00:29:59.547Z,1726.7693
2023-03-22T00:31:00.948Z,1743.0769
2023-03-22T00:32:02.291Z,1749.0000
2023-03-22T00:33:03.726Z,1753.6154
2023-03-22T00:34:05.132Z,1761.3077
2023-03-22T00:35:06.574Z,1763.3846
2023-03-22T00:36:07.988Z,1769.9231
2023-03-22T00:37:09.432Z,1776.3077
2023-03-22T00:38:10.841Z,1776.6923
2023-03-22T00:39:12.263Z,1774.9231
2023-03-22T00:40:13.676Z,1776.5385
2023-03-22T00:41:15.115Z,1787.9231
2023-03-22T00:42:16.528Z,1798.4615
2023-03-22T00:43:17.966Z,1801.3077
2023-03-22T00:44:19.377Z,1800.8462
2023-03-22T00:45:20.823Z,1805.6154
2023-03-22T00:46:22.320Z,1814.5385
2023-03-22T00:47:23.667Z,1813.5385
2023-03-22T00:48:25.111Z,1821.3077
2023-03-22T00:49:26.514Z,1834.2307
2023-03-22T00:50:27.926Z,1840.9231
2023-03-22T00:51:29.364Z,1846.3846
2023-03-22T00:52:30.767Z,1847.4615
2023-03-22T00:53:32.195Z,1855.0769
2023-03-22T00:54:33.619Z,1856.5385
2023-03-22T00:55:35.051Z,1856.8462
2023-03-22T00:56:36.488Z,1862.6154
2023-03-22T00:57:37.952Z,1873.1538
2023-03-22T00:58:39.317Z,1880.9231
2023-03-22T00:59:40.757Z,1886.8462
2023-03-22T01:00:42.518Z,1889.0000
2023-03-22T01:01:43.602Z,1893.6154
2023-03-22T01:02:45.038Z,1894.3077
2023-03-22T01:03:46.489Z,1900.2307
2023-03-22T01:04:47.887Z,1905.6923
2023-03-22T01:05:49.409Z,1909.6154
2023-03-22T01:06:50.820Z,1919.4615
2023-03-22T01:07:52.239Z,1928.0769
2023-03-22T01:08:53.672Z,1933.3077
2023-03-22T01:09:55.099Z,1934.4615
2023-03-22T01:10:56.521Z,1942.2307
2023-03-22T01:11:57.928Z,1946.5385
2023-03-22T01:12:59.360Z,1949.0769
2023-03-22T01:14:00.794Z,1953.3077
2023-03-22T01:15:02.242Z,1949.9231
2023-03-22T01:16:03.661Z,1951.4615
2023-03-22T01:17:05.077Z,1954.3077
2023-03-22T01:18:06.508Z,1968.6154
2023-03-22T01:19:07.918Z,1978.3077
2023-03-22T01:20:09.355Z,1980.3846
2023-03-22T01:21:10.766Z,1982.3077
2023-03-22T01:22:12.195Z,1983.7693
2023-03-22T01:23:13.631Z,1986.3846
2023-03-22T01:24:15.039Z,1992.6923
2023-03-22T01:25:16.448Z,1999.1538
2023-03-22T01:26:17.903Z,2002.6923
2023-03-22T01:27:19.306Z,2004.4615
2023-03-22T01:28:20.761Z,2010.3077
2023-03-22T01:29:22.161Z,2017.1538
2023-03-22T01:30:23.607Z,2015.9231
2023-03-22T01:31:25.007Z,2020.9231
2023-03-22T01:32:26.443Z,2023.0000
2023-03-22T01:33:27.873Z,2031.6923
2023-03-22T01:34:29.301Z,2036.6923
2023-03-22T01:35:30.781Z,2040.9231
2023-03-22T01:36:32.158Z,2046.3077
2023-03-22T01:37:33.593Z,2052.6155
2023-03-22T01:38:35.041Z,2054.6924
2023-03-22T01:39:36.441Z,2056.6924
2023-03-22T01:40:38.319Z,2060.4614
2023-03-22T01:41:39.289Z,2064.3076
2023-03-22T01:42:40.722Z,2070.2307
2023-03-22T01:43:42.196Z,2077.8462
2023-03-22T01:44:43.579Z,2086.6924
2023-03-22T01:45:45.003Z,2089.5386
2023-03-22T01:46:46.438Z,2093.2307
2023-03-22T01:47:47.846Z,2094.3076
2023-03-22T01:48:49.327Z,2096.4614
2023-03-22T01:49:50.705Z,2102.2307
2023-03-22T01:50:52.139Z,2111.6924
2023-03-22T01:51:53.557Z,2118.4614
2023-03-22T01:52:54.988Z,2121.2307
2023-03-22T01:53:56.423Z,2125.4614
2023-03-22T01:54:57.835Z,2124.0769
2023-03-22T01:55:59.260Z,2123.5386
2023-03-22T01:57:00.697Z,2130.9231
2023-03-22T01:58:02.101Z,2138.8462
2023-03-22T01:59:03.537Z,2152.0769
2023-03-22T02:00:04.945Z,2153.3076
2023-03-22T02:01:06.469Z,2155.0000
2023-03-22T02:02:07.797Z,2155.3845
2023-03-22T02:03:09.220Z,2160.1538
2023-03-22T02:04:10.656Z,2164.6924
2023-03-22T02:05:12.090Z,2173.4614
2023-03-22T02:06:13.515Z,2179.8462
2023-03-22T02:07:14.916Z,2184.8462
2023-03-22T02:08:16.345Z,2194.4614
2023-03-22T02:09:17.783Z,2199.1538
2023-03-22T02:10:19.201Z,2200.3845
2023-03-22T02:11:20.648Z,2192.1538
2023-03-22T02:12:22.055Z,2198.5386
2023-03-22T02:13:23.504Z,2200.6155
2023-03-22T02:14:27.191Z,2201.8462
2023-03-22T02:15:26.311Z,2208.1538
2023-03-22T02:16:27.752Z,2212.2307
2023-03-22T02:17:29.174Z,2211.6924
2023-03-22T02:18:30.568Z,2217.0000
2023-03-22T02:19:31.986Z,2233.3845
2023-03-22T02:20:33.393Z,2240.8462
2023-03-22T02:21:34.812Z,2247.2307
2023-03-22T02:22:36.210Z,2243.3076
2023-03-22T02:23:37.682Z,2244.6155
2023-03-22T02:24:39.073Z,2247.8462
2023-03-22T02:25:40.501Z,2248.9231
2023-03-22T02:26:41.913Z,2250.0000
2023-03-22T02:27:43.341Z,2250.3845
2023-03-22T02:28:44.828Z,2251.1538
2023-03-22T02:29:46.194Z,2257.2307
2023-03-22T02:30:47.606Z,2272.0000
2023-03-22T02:31:49.047Z,2283.6155
2023-03-22T02:32:50.437Z,2287.0769
2023-03-22T02:33:51.871Z,2292.6924
2023-03-22T02:34:53.274Z,2302.4614
2023-03-22T02:35:54.716Z,2303.3076
2023-03-22T02:36:56.124Z,2305.9231
2023-03-22T02:37:57.579Z,2306.0000
2023-03-22T02:38:58.961Z,2311.3076
2023-03-22T02:40:00.374Z,2315.7693
2023-03-22T02:41:01.797Z,2317.4614
2023-03-22T02:42:03.242Z,2324.1538
2023-03-22T02:43:04.632Z,2325.7693
2023-03-22T02:44:06.081Z,2336.6924
2023-03-22T02:45:07.472Z,2337.6924
2023-03-22T02:46:09.020Z,2341.3076
2023-03-22T02:47:10.318Z,2349.3076
2023-03-22T02:48:11.805Z,2352.9231
2023-03-22T02:49:13.193Z,2364.4614
2023-03-22T02:50:14.588Z,2370.6155
2023-03-22T02:51:15.996Z,2374.3845
2023-03-22T02:52:17.437Z,2376.8462
2023-03-22T02:53:18.849Z,2380.1538
2023-03-22T02:54:20.307Z,2394.6155
2023-03-22T02:55:21.675Z,2393.6924
2023-03-22T02:56:23.136Z,2396.6924
2023-03-22T02:57:24.528Z,2399.5386
2023-03-22T02:58:25.964Z,2401.4614
2023-03-22T02:59:27.373Z,2406.9231
2023-03-22T03:00:28.844Z,2413.0000
2023-03-22T03:01:30.295Z,2421.3076
2023-03-22T03:02:31.684Z,2423.5386
2023-03-22T03:03:33.071Z,2427.9231
2023-03-22T03:04:34.507Z,2433.5386
2023-03-22T03:05:35.906Z,2435.5386
2023-03-22T03:06:37.347Z,2436.2307
2023-03-22T03:07:38.774Z,2439.1538
2023-03-22T03:08:40.188Z,2442.4614
2023-03-22T03:09:41.623Z,2444.2307
2023-03-22T03:10:43.049Z,2448.1538
2023-03-22T03:11:44.472Z,2453.0769
2023-03-22T03:12:45.891Z,2456.5386
2023-03-22T03:13:47.307Z,2464.1538
2023-03-22T03:14:48.741Z,2466.7693
2023-03-22T03:15:50.155Z,2469.2307
2023-03-22T03:16:51.591Z,2468.6924
2023-03-22T03:17:52.999Z,2474.2307
2023-03-22T03:18:54.413Z,2475.3076
2023-03-22T03:19:55.830Z,2487.3076
2023-03-22T03:20:57.269Z,2493.6155
2023-03-22T03:21:58.680Z,2503.0000
2023-03-22T03:23:00.112Z,2506.6924
2023-03-22T03:24:01.544Z,2503.5386
2023-03-22T03:25:02.938Z,2504.4614
2023-03-22T03:26:04.352Z,2511.5386
2023-03-22T03:27:05.775Z,2516.5386
2023-03-22T03:28:07.238Z,2520.3845
2023-03-22T03:29:08.627Z,2522.0769
2023-03-22T03:30:10.079Z,2523.3076
2023-03-22T03:31:11.544Z,2530.3845
2023-03-22T03:32:12.905Z,2531.7693
2023-03-22T03:33:14.421Z,2539.6924
2023-03-22T03:34:15.757Z,2546.5386
2023-03-22T03:35:17.203Z,2552.8462
2023-03-22T03:36:18.596Z,2551.9231
2023-03-22T03:37:20.015Z,2550.6155
2023-03-22T03:38:21.442Z,2549.4614
2023-03-22T03:39:22.845Z,2557.3845
2023-03-22T03:40:24.280Z,2562.1538
2023-03-22T03:41:25.697Z,2566.3845
2023-03-22T03:42:27.121Z,2566.7693
2023-03-22T03:43:28.554Z,2568.8462
2023-03-22T03:44:29.988Z,2577.7693
2023-03-22T03:45:31.405Z,2583.0769
2023-03-22T03:46:32.829Z,2584.3845
2023-03-22T03:47:34.248Z,2587.5386
2023-03-22T03:48:35.687Z,2586.6155
2023-03-22T03:49:37.091Z,2592.6155
2023-03-22T03:50:38.868Z,2597.8462
2023-03-22T03:51:39.916Z,2601.1538
2023-03-22T03:52:41.376Z,2601.3076
2023-03-22T03:53:42.767Z,2608.4614
2023-03-22T03:54:44.204Z,2615.1538
2023-03-22T03:55:45.610Z,2612.6924
2023-03-22T03:56:47.033Z,2612.5386
2023-03-22T03:57:48.453Z,2618.0000
2023-03-22T03:58:49.876Z,2622.6924
2023-03-22T03:59:51.316Z,2634.0000
2023-03-22T04:00:52.751Z,2631.7693
2023-03-22T04:01:54.238Z,2630.6924
2023-03-22T04:02:55.576Z,2638.8462
2023-03-22T04:03:57.017Z,2658.4614
2023-03-22T04:04:58.431Z,2657.0000
2023-03-22T04:05:59.971Z,2651.6924
2023-03-22T04:07:01.273Z,2653.6155
2023-03-22T04:08:02.691Z,2656.0769
2023-03-22T04:09:04.138Z,2663.6924
2023-03-22T04:10:05.570Z,2665.9231
2023-03-22T04:11:06.976Z,2663.0769
2023-03-22T04:12:08.403Z,2667.3076
2023-03-22T04:13:09.794Z,2666.1538
2023-03-22T04:14:11.209Z,2671.5386
2023-03-22T04:15:12.638Z,2675.1538
2023-03-22T04:16:14.114Z,2676.7693
2023-03-22T04:17:15.485Z,2678.6924
2023-03-22T04:18:16.896Z,2678.6924
2023-03-22T04:19:18.317Z,2688.0000
2023-03-22T04:20:19.753Z,2698.3076
2023-03-22T04:21:21.212Z,2700.1538
2023-03-22T04:22:22.587Z,2696.9231
2023-03-22T04:23:24.033Z,2695.5386
2023-03-22T04:24:25.476Z,2696.1538
2023-03-22T04:25:26.859Z,2706.0769
2023-03-22T04:26:28.289Z,2710.3076
2023-03-22T04:27:29.714Z,2711.0000
2023-03-22T04:28:31.119Z,2700.6924
2023-03-22T04:29:32.546Z,2694.8462
2023-03-22T04:30:33.970Z,2696.0769
2023-03-22T04:31:35.395Z,2699.8462
2023-03-22T04:32:36.819Z,2714.8462
2023-03-22T04:33:38.251Z,2722.3076
2023-03-22T04:34:39.679Z,2725.3076
2023-03-22T04:35:41.154Z,2694.3845
2023-03-22T04:36:42.526Z,2652.1538
2023-03-22T04:37:43.949Z,2599.5386
2023-03-22T04:38:45.367Z,2542.3076
2023-03-22T04:39:46.801Z,2508.7693
2023-03-22T04:40:48.215Z,2468.6155
2023-03-22T04:41:49.635Z,2413.4614
2023-03-22T04:42:51.055Z,2350.5386
2023-03-22T04:43:52.520Z,2271.7693
2023-03-22T04:44:53.894Z,2214.4614
2023-03-22T04:45:55.365Z,2174.5386
2023-03-22T04:46:56.735Z,1603.6923
2023-03-22T04:47:58.169Z,807.7692
2023-03-22T04:48:59.570Z,555.1539
2023-03-22T04:50:01.006Z,476.8462
2023-03-22T04:51:02.424Z,452.4615
2023-03-22T04:52:03.836Z,451.3846
2023-03-22T04:53:05.261Z,455.5385
2023-03-22T04:54:06.702Z,489.3077
2023-03-22T04:55:08.121Z,666.6923
2023-03-22T04:56:09.531Z,942.0000
2023-03-22T04:57:10.960Z,1085.7693
2023-03-22T04:58:12.370Z,1128.0769
2023-03-22T04:59:13.782Z,1151.0000
2023-03-22T05:00:15.288Z,1163.9231
